Time;durP1;ratioP1;P1;durP2;ratioP2;P2;SDS_P1;SDS_P2;PMS_P1;PMS_P2;Temp;Humidity;BMP_temperature;BMP_pressure;BME280_temperature;BME280_humidity;BME280_pressure;Samples;Min_cycle;Max_cycle;Signal;HPM_P1;HPM_P2
2023/12/01 00:02:10;;;;;;;164.33;50.77;;;0.50;99.90;;;;;;5068467;28;20046;-72
2023/12/01 00:04:36;;;;;;;166.33;51.13;;;0.50;99.90;;;;;;5083834;28;20133;-72
2023/12/01 00:07:02;;;;;;;163.23;53.13;;;0.40;99.90;;;;;;5083189;28;20058;-72
2023/12/01 00:09:28;;;;;;;186.90;55.23;;;0.40;99.90;;;;;;5066219;28;20036;-72
2023/12/01 00:11:53;;;;;;;155.47;51.90;;;0.40;99.90;;;;;;5088186;28;20058;-72
2023/12/01 00:14:19;;;;;;;154.50;48.70;;;0.30;99.90;;;;;;5077335;28;20048;-72
2023/12/01 00:16:45;;;;;;;140.93;49.90;;;0.30;99.90;;;;;;5078912;28;20048;-72
2023/12/01 00:19:11;;;;;;;113.97;45.60;;;0.30;99.90;;;;;;5072167;28;20051;-72
2023/12/01 00:21:37;;;;;;;84.23;39.60;;;0.30;99.90;;;;;;5079808;28;21809;-72
2023/12/01 00:24:03;;;;;;;85.73;40.00;;;0.30;99.90;;;;;;5065124;28;20044;-72
2023/12/01 00:26:28;;;;;;;81.70;39.10;;;0.20;99.90;;;;;;5063329;28;20127;-72
2023/12/01 00:28:54;;;;;;;74.13;36.53;;;0.20;99.90;;;;;;5082307;28;20047;-72
2023/12/01 00:31:20;;;;;;;75.40;37.20;;;0.20;99.90;;;;;;5067459;28;20047;-72
2023/12/01 00:33:48;;;;;;;79.90;37.93;;;0.20;99.90;;;;;;5080356;28;20537;-73
2023/12/01 00:36:14;;;;;;;79.90;38.43;;;0.20;99.90;;;;;;5077204;28;20044;-72
2023/12/01 00:38:40;;;;;;;79.00;38.07;;;0.20;99.90;;;;;;5081132;28;20522;-73
2023/12/01 00:41:05;;;;;;;80.57;37.00;;;0.10;99.90;;;;;;5085307;28;20131;-72
2023/12/01 00:43:31;;;;;;;66.40;35.10;;;0.10;99.90;;;;;;5070138;28;20433;-73
2023/12/01 00:45:57;;;;;;;72.73;36.20;;;0.10;99.90;;;;;;5066928;28;21254;-72
2023/12/01 00:48:24;;;;;;;66.93;33.97;;;0.10;99.90;;;;;;5065252;28;20039;-73
2023/12/01 00:50:51;;;;;;;83.23;37.57;;;0.10;99.90;;;;;;5060189;28;20074;-72
2023/12/01 00:53:17;;;;;;;78.13;35.63;;;0.10;99.90;;;;;;5064008;28;20109;-72
2023/12/01 00:55:42;;;;;;;77.03;37.30;;;0.10;99.90;;;;;;5078834;28;20048;-72
2023/12/01 00:58:08;;;;;;;83.07;37.03;;;0.10;99.90;;;;;;5064865;28;20506;-72
2023/12/01 01:00:34;;;;;;;75.80;36.27;;;0.10;99.90;;;;;;5081692;28;20032;-72
2023/12/01 01:03:00;;;;;;;73.80;35.67;;;0.10;99.90;;;;;;5074197;28;20048;-72
2023/12/01 01:05:26;;;;;;;77.33;37.73;;;0.20;99.90;;;;;;5081034;28;20487;-72
2023/12/01 01:07:51;;;;;;;76.33;36.57;;;0.10;99.90;;;;;;5076761;28;20420;-72
2023/12/01 01:10:17;;;;;;;78.00;36.50;;;0.00;99.90;;;;;;5079821;28;20093;-73
2023/12/01 01:12:43;;;;;;;76.60;35.30;;;0.00;99.90;;;;;;5063841;28;20580;-72
2023/12/01 01:15:09;;;;;;;81.20;36.30;;;0.00;99.90;;;;;;5065795;28;20036;-72
2023/12/01 01:17:35;;;;;;;78.07;36.37;;;0.00;99.90;;;;;;5081177;28;20072;-72
2023/12/01 01:20:01;;;;;;;75.10;35.40;;;0.00;99.90;;;;;;5062600;28;20098;-73
2023/12/01 01:22:27;;;;;;;73.40;35.22;;;-0.10;99.90;;;;;;5077317;28;20407;-73
2023/12/01 01:24:53;;;;;;;72.67;32.87;;;-0.10;99.90;;;;;;5060218;28;20056;-73
2023/12/01 01:27:19;;;;;;;73.63;33.97;;;-0.10;99.90;;;;;;5081269;28;20182;-72
2023/12/01 01:29:45;;;;;;;75.97;34.73;;;-0.10;99.90;;;;;;5081029;28;20059;-73
2023/12/01 01:32:11;;;;;;;73.97;34.70;;;-0.10;99.90;;;;;;5079952;28;20050;-72
2023/12/01 01:34:38;;;;;;;75.20;36.07;;;-0.10;99.90;;;;;;5080129;28;20044;-72
2023/12/01 01:37:04;;;;;;;70.73;33.83;;;-0.10;99.90;;;;;;5080377;28;20097;-72
2023/12/01 01:39:30;;;;;;;69.03;32.60;;;-0.30;99.90;;;;;;5079755;28;20454;-72
2023/12/01 01:41:56;;;;;;;64.43;31.63;;;-0.20;99.90;;;;;;5076027;28;20106;-72
2023/12/01 01:44:22;;;;;;;63.87;30.77;;;-0.30;99.90;;;;;;5064438;28;20040;-72
2023/12/01 01:46:50;;;;;;;63.83;32.77;;;-0.30;99.90;;;;;;5064355;28;20055;-72
2023/12/01 01:49:17;;;;;;;68.00;32.73;;;-0.40;99.90;;;;;;5063645;28;20044;-72
2023/12/01 01:51:44;;;;;;;61.10;31.77;;;-0.30;99.90;;;;;;5086986;28;20060;-72
2023/12/01 01:54:11;;;;;;;57.30;31.13;;;-0.40;99.90;;;;;;5079158;28;20498;-72
2023/12/01 01:56:38;;;;;;;54.93;29.80;;;-0.40;99.90;;;;;;5086656;28;20039;-72
2023/12/01 01:59:04;;;;;;;49.37;28.87;;;-0.50;99.90;;;;;;5074614;28;20040;-73
2023/12/01 02:01:30;;;;;;;53.27;31.13;;;-0.50;99.90;;;;;;5071940;28;20122;-72
2023/12/01 02:03:55;;;;;;;54.80;30.80;;;-0.60;99.90;;;;;;5063473;28;20262;-73
2023/12/01 02:06:30;;;;;;;54.33;30.87;;;-0.70;99.90;;;;;;5083899;28;20115;-72
2023/12/01 02:08:58;;;;;;;53.93;31.77;;;-0.70;99.90;;;;;;5075262;28;20059;-72
2023/12/01 02:11:25;;;;;;;54.40;31.87;;;-0.70;99.90;;;;;;5070891;28;20040;-72
2023/12/01 02:13:54;;;;;;;58.03;31.47;;;-0.70;99.90;;;;;;5064221;28;20048;-72
2023/12/01 02:16:20;;;;;;;54.25;31.35;;;-0.70;99.90;;;;;;5071926;28;20514;-73
2023/12/01 02:18:48;;;;;;;50.57;30.07;;;-0.70;99.90;;;;;;5080121;28;20075;-71
2023/12/01 02:21:13;;;;;;;50.90;31.00;;;-0.70;99.90;;;;;;5073958;28;20048;-72
2023/12/01 02:23:40;;;;;;;58.37;31.33;;;-0.80;99.90;;;;;;5077101;28;20036;-71
2023/12/01 02:26:09;;;;;;;52.87;30.30;;;-0.80;99.90;;;;;;5074352;28;20513;-71
2023/12/01 02:28:35;;;;;;;51.37;29.73;;;-0.80;99.90;;;;;;5066446;28;20127;-71
2023/12/01 02:31:01;;;;;;;51.80;29.97;;;-0.90;99.90;;;;;;5080734;28;20173;-72
2023/12/01 02:33:26;;;;;;;54.83;30.90;;;-0.90;99.90;;;;;;5062344;28;20153;-71
2023/12/01 02:35:53;;;;;;;50.50;29.53;;;-1.00;99.90;;;;;;5065230;28;20156;-71
2023/12/01 02:38:20;;;;;;;53.57;31.90;;;-1.00;99.90;;;;;;5064313;28;20101;-71
2023/12/01 02:40:49;;;;;;;53.03;30.50;;;-1.10;99.90;;;;;;5079639;28;20044;-71
2023/12/01 02:43:20;;;;;;;58.63;32.58;;;-1.10;99.90;;;;;;5066312;28;20040;-71
2023/12/01 02:45:46;;;;;;;57.28;34.20;;;-1.00;99.90;;;;;;5060392;28;20047;-71
2023/12/01 02:48:12;;;;;;;59.70;34.93;;;-1.00;99.90;;;;;;5083098;28;20962;-71
2023/12/01 02:50:38;;;;;;;60.23;34.97;;;-1.00;99.90;;;;;;5070807;28;20060;-71
2023/12/01 02:53:05;;;;;;;53.90;32.47;;;-1.00;99.90;;;;;;5078579;28;20452;-71
2023/12/01 02:55:31;;;;;;;48.87;31.13;;;-1.00;99.90;;;;;;5065859;28;20505;-71
2023/12/01 02:57:57;;;;;;;53.67;33.13;;;-1.10;99.90;;;;;;5070339;28;20073;-71
2023/12/01 03:00:23;;;;;;;59.70;34.03;;;-1.00;99.90;;;;;;5087310;28;20041;-71
2023/12/01 03:02:50;;;;;;;52.37;32.27;;;-0.90;99.90;;;;;;5074954;28;20051;-71
2023/12/01 03:05:16;;;;;;;47.63;30.07;;;-1.10;99.90;;;;;;5070927;28;20052;-71
2023/12/01 03:07:42;;;;;;;53.70;32.00;;;-1.10;99.90;;;;;;5058556;28;20116;-71
2023/12/01 03:10:09;;;;;;;59.73;34.43;;;-1.10;99.90;;;;;;5077491;28;20453;-72
2023/12/01 03:12:39;;;;;;;60.73;36.27;;;-1.10;99.90;;;;;;5075248;28;20073;-72
2023/12/01 03:15:06;;;;;;;;;;;-1.10;99.90;;;;;;5083531;28;20510;-72
2023/12/01 03:17:32;;;;;;;64.57;37.03;;;-1.10;99.90;;;;;;5087285;28;19921;-72
2023/12/01 03:19:58;;;;;;;64.97;37.27;;;-1.20;99.90;;;;;;5083088;28;20055;-72
2023/12/01 03:22:25;;;;;;;53.63;32.00;;;-1.20;99.90;;;;;;5063454;28;20094;-72
2023/12/01 03:24:53;;;;;;;55.53;33.90;;;-1.20;99.90;;;;;;5072013;28;20694;-72
2023/12/01 03:27:19;;;;;;;57.17;33.60;;;-1.20;99.90;;;;;;5081359;28;20048;-72
2023/12/01 03:29:46;;;;;;;58.83;34.47;;;-1.30;99.90;;;;;;5081006;28;20048;-72
2023/12/01 03:32:11;;;;;;;56.67;34.13;;;-1.30;99.90;;;;;;5083117;28;20426;-72
2023/12/01 03:34:38;;;;;;;60.63;35.87;;;-1.30;99.90;;;;;;5070859;28;20037;-71
2023/12/01 03:37:03;;;;;;;64.00;35.27;;;-1.40;99.90;;;;;;5086608;28;20139;-72
2023/12/01 03:39:32;;;;;;;66.70;37.27;;;-1.40;99.90;;;;;;5064772;28;20100;-72
2023/12/01 03:41:58;;;;;;;70.67;37.37;;;-1.40;99.90;;;;;;5080537;28;20035;-72
2023/12/01 03:44:24;;;;;;;66.67;35.57;;;-1.40;99.90;;;;;;5062861;28;20055;-71
2023/12/01 03:46:50;;;;;;;65.40;35.53;;;-1.40;99.90;;;;;;5091009;28;20051;-72
2023/12/01 03:49:15;;;;;;;64.87;34.13;;;-1.50;99.90;;;;;;5073735;28;20037;-72
2023/12/01 03:51:41;;;;;;;55.80;31.13;;;-1.50;99.90;;;;;;5064153;28;20397;-72
2023/12/01 03:54:07;;;;;;;58.27;32.23;;;-1.50;99.90;;;;;;5082048;28;20040;-72
2023/12/01 03:56:36;;;;;;;54.63;32.20;;;-1.60;99.90;;;;;;5068901;28;20040;-71
2023/12/01 03:59:09;;;;;;;60.28;33.30;;;-1.60;99.90;;;;;;5071009;28;20035;-71
2023/12/01 04:01:38;;;;;;;57.47;32.53;;;-1.60;99.90;;;;;;5083005;28;20044;-72
2023/12/01 04:04:05;;;;;;;52.47;31.20;;;-1.70;99.90;;;;;;5078879;28;20052;-72
2023/12/01 04:06:34;;;;;;;51.57;32.27;;;-1.70;99.90;;;;;;5080948;28;20044;-71
2023/12/01 04:09:05;;;;;;;51.90;31.60;;;-1.70;99.90;;;;;;5090309;28;20031;-71
2023/12/01 04:11:32;;;;;;;55.97;34.20;;;-1.70;99.90;;;;;;5093112;28;20079;-72
2023/12/01 04:13:58;;;;;;;57.27;33.50;;;-1.60;99.90;;;;;;5068834;28;20052;-72
2023/12/01 04:16:24;;;;;;;54.90;32.83;;;-1.70;99.90;;;;;;5063701;28;20043;-72
2023/12/01 04:18:54;;;;;;;57.77;34.20;;;-1.70;99.90;;;;;;5088779;28;20114;-72
2023/12/01 04:21:20;;;;;;;53.83;33.50;;;-1.70;99.90;;;;;;5082933;28;20052;-72
2023/12/01 04:23:45;;;;;;;54.43;32.17;;;-1.70;99.90;;;;;;5081944;28;20043;-72
2023/12/01 04:26:12;;;;;;;53.73;32.03;;;-1.70;99.90;;;;;;5065202;28;20445;-72
2023/12/01 04:28:41;;;;;;;61.00;34.87;;;-1.80;99.90;;;;;;5064391;28;20065;-72
2023/12/01 04:31:06;;;;;;;59.40;34.03;;;-1.70;99.90;;;;;;5078919;28;20385;-72
2023/12/01 04:33:32;;;;;;;54.77;31.90;;;-1.80;99.90;;;;;;5092765;28;20382;-72
2023/12/01 04:35:58;;;;;;;56.57;32.77;;;-1.70;99.90;;;;;;5062846;28;20052;-72
2023/12/01 04:38:24;;;;;;;54.70;32.37;;;-1.80;99.90;;;;;;5067381;28;20098;-72
2023/12/01 04:40:50;;;;;;;53.77;32.20;;;-1.80;99.90;;;;;;5089097;28;20047;-72
2023/12/01 04:43:17;;;;;;;52.07;31.80;;;-1.90;99.90;;;;;;5084811;28;20506;-72
2023/12/01 04:45:43;;;;;;;55.73;31.03;;;-1.80;99.90;;;;;;5080960;28;20097;-72
2023/12/01 04:48:09;;;;;;;55.20;31.10;;;-1.80;99.90;;;;;;5084815;28;20486;-72
2023/12/01 04:50:40;;;;;;;55.07;32.10;;;-1.80;99.90;;;;;;5078746;28;20039;-72
2023/12/01 04:53:06;;;;;;;50.90;31.60;;;-1.90;99.90;;;;;;5065360;28;20043;-72
2023/12/01 04:55:32;;;;;;;53.43;31.77;;;-1.90;99.90;;;;;;5071773;28;20036;-72
2023/12/01 04:57:58;;;;;;;49.63;31.23;;;-2.00;99.90;;;;;;5064717;28;20048;-72
2023/12/01 05:00:25;;;;;;;54.10;31.83;;;-2.00;99.90;;;;;;5080629;28;20032;-72
2023/12/01 05:02:51;;;;;;;54.97;31.93;;;-2.00;99.90;;;;;;5077925;28;20509;-72
2023/12/01 05:05:22;;;;;;;53.93;31.80;;;-2.00;99.90;;;;;;5069293;28;20119;-72
2023/12/01 05:07:50;;;;;;;;;;;-2.10;99.90;;;;;;5075382;28;20044;-72
2023/12/01 05:10:20;;;;;;;50.97;30.07;;;-2.10;99.90;;;;;;5083195;28;19947;-72
2023/12/01 05:12:54;;;;;;;54.70;31.53;;;-2.10;99.90;;;;;;5073490;28;20095;-72
2023/12/01 05:15:24;;;;;;;56.43;32.03;;;-2.10;99.90;;;;;;5054774;28;20105;-72
2023/12/01 05:17:52;;;;;;;53.70;30.40;;;-2.10;99.90;;;;;;5080878;28;20053;-72
2023/12/01 05:20:19;;;;;;;53.87;31.13;;;-2.10;99.90;;;;;;5069340;28;20048;-72
2023/12/01 05:22:59;;;;;;;56.40;31.93;;;-2.10;99.90;;;;;;5059742;28;20044;-72
2023/12/01 05:25:26;;;;;;;59.63;32.93;;;-2.10;99.90;;;;;;5059866;28;20044;-72
2023/12/01 05:27:54;;;;;;;58.70;33.97;;;-2.10;99.90;;;;;;5065437;28;20118;-72
2023/12/01 05:30:23;;;;;;;58.67;32.23;;;-2.10;99.90;;;;;;5077538;28;20060;-72
2023/12/01 05:32:50;;;;;;;60.83;33.70;;;-2.10;99.90;;;;;;5067793;28;20101;-72
2023/12/01 05:35:16;;;;;;;59.43;31.97;;;-2.20;99.90;;;;;;5066658;28;20611;-72
2023/12/01 05:37:50;;;;;;;58.83;34.27;;;-2.20;99.90;;;;;;5084118;28;20101;-72
2023/12/01 05:40:26;;;;;;;57.00;32.20;;;-2.20;99.90;;;;;;5078551;28;20272;-72
2023/12/01 05:42:56;;;;;;;59.00;31.60;;;-2.30;99.90;;;;;;5053605;28;20060;-72
2023/12/01 05:45:26;;;;;;;56.27;31.37;;;-2.30;99.90;;;;;;5066111;28;20071;-72
2023/12/01 05:47:56;;;;;;;61.78;33.10;;;-2.30;99.90;;;;;;5072537;28;20291;-72
2023/12/01 05:50:30;;;;;;;57.47;33.13;;;-2.40;99.90;;;;;;5085484;28;20115;-72
2023/12/01 05:53:00;;;;;;;59.27;34.27;;;-2.40;99.90;;;;;;5082476;28;20077;-72
2023/12/01 05:55:28;;;;;;;57.37;32.93;;;-2.40;99.90;;;;;;5077125;28;20048;-72
2023/12/01 05:58:01;;;;;;;61.13;34.43;;;-2.40;99.90;;;;;;5060650;28;20036;-72
2023/12/01 06:00:31;;;;;;;59.63;33.20;;;-2.40;99.90;;;;;;5072154;28;20506;-72
2023/12/01 06:02:58;;;;;;;;;;;-2.40;99.90;;;;;;5068538;28;20530;-72
2023/12/01 06:05:24;;;;;;;56.43;32.43;;;-2.40;99.90;;;;;;5071356;28;19920;-72
2023/12/01 06:07:54;;;;;;;53.27;31.60;;;-2.40;99.90;;;;;;5066179;28;20106;-72
2023/12/01 06:10:21;;;;;;;52.88;31.23;;;-2.40;99.90;;;;;;5077009;28;20048;-72
2023/12/01 06:12:47;;;;;;;54.27;32.07;;;-2.40;99.90;;;;;;5080627;28;20036;-71
2023/12/01 06:15:14;;;;;;;58.07;32.53;;;-2.40;99.90;;;;;;5069921;28;20055;-71
2023/12/01 06:17:42;;;;;;;57.80;32.10;;;-2.40;99.90;;;;;;5076520;28;20047;-71
2023/12/01 06:20:19;;;;;;;56.03;31.90;;;-2.50;99.90;;;;;;5060443;28;20040;-71
2023/12/01 06:22:56;;;;;;;53.53;31.00;;;-2.50;99.90;;;;;;5068747;28;20044;-70
2023/12/01 06:25:30;;;;;;;58.60;33.30;;;-2.50;99.90;;;;;;5081290;28;20066;-71
2023/12/01 06:27:58;;;;;;;53.67;31.17;;;-2.50;99.90;;;;;;5071485;28;20049;-70
2023/12/01 06:30:25;;;;;;;56.47;31.33;;;-2.60;99.90;;;;;;5064003;28;20094;-72
2023/12/01 06:32:51;;;;;;;53.63;30.87;;;-2.60;99.90;;;;;;5076558;28;20105;-71
2023/12/01 06:35:21;;;;;;;53.33;30.57;;;-2.60;99.90;;;;;;5061978;28;20044;-72
2023/12/01 06:37:48;;;;;;;51.20;30.15;;;-2.60;99.90;;;;;;5082072;28;20087;-72
2023/12/01 06:40:18;;;;;;;54.73;30.63;;;-2.70;99.90;;;;;;5079079;28;20035;-70
2023/12/01 06:42:44;;;;;;;52.45;29.90;;;-2.70;99.90;;;;;;5075571;28;20081;-71
2023/12/01 06:45:11;;;;;;;49.83;29.73;;;-2.70;99.90;;;;;;5070836;28;20101;-71
2023/12/01 06:47:38;;;;;;;45.87;27.73;;;-2.70;99.90;;;;;;5073677;28;20052;-71
2023/12/01 06:50:05;;;;;;;46.93;28.57;;;-2.70;99.90;;;;;;5083482;28;20051;-70
2023/12/01 06:52:30;;;;;;;50.23;28.07;;;-2.80;99.90;;;;;;5066425;28;20075;-71
2023/12/01 06:54:56;;;;;;;49.27;27.97;;;-2.80;99.90;;;;;;5078901;28;20086;-70
2023/12/01 06:57:22;;;;;;;44.87;28.17;;;-2.80;99.90;;;;;;5083504;28;20097;-70
2023/12/01 06:59:47;;;;;;;47.83;29.00;;;-2.80;99.90;;;;;;5078783;28;20681;-70
2023/12/01 07:02:17;;;;;;;47.90;28.03;;;-2.80;99.90;;;;;;5083546;28;20055;-71
2023/12/01 07:04:46;;;;;;;49.87;29.97;;;-2.80;99.90;;;;;;5068186;28;20128;-71
2023/12/01 07:07:12;;;;;;;51.03;29.63;;;-2.80;99.90;;;;;;5085216;28;20048;-71
2023/12/01 07:09:43;;;;;;;47.50;28.47;;;-2.90;99.90;;;;;;5085274;28;20427;-72
2023/12/01 07:12:09;;;;;;;47.67;28.50;;;-2.90;99.90;;;;;;5075045;28;20047;-72
2023/12/01 07:14:36;;;;;;;42.43;26.20;;;-2.90;99.90;;;;;;5070671;28;20040;-72
2023/12/01 07:17:05;;;;;;;49.63;28.63;;;-3.00;99.90;;;;;;5086282;28;20231;-72
2023/12/01 07:19:32;;;;;;;43.10;26.40;;;-3.00;99.90;;;;;;5071771;28;20113;-72
2023/12/01 07:21:59;;;;;;;43.43;26.00;;;-3.00;99.90;;;;;;5076568;28;20049;-72
2023/12/01 07:24:24;;;;;;;45.23;27.37;;;-3.00;99.90;;;;;;5066401;28;20040;-72
2023/12/01 07:26:51;;;;;;;42.50;25.80;;;-3.00;99.90;;;;;;5078601;28;20154;-72
2023/12/01 07:29:20;;;;;;;43.47;26.33;;;-3.00;99.90;;;;;;5080247;28;21085;-71
2023/12/01 07:31:46;;;;;;;42.07;25.83;;;-3.10;99.90;;;;;;5070958;28;20040;-71
2023/12/01 07:34:12;;;;;;;42.93;25.13;;;-3.10;99.90;;;;;;5073535;28;20052;-71
2023/12/01 07:36:39;;;;;;;39.97;24.33;;;-3.10;99.90;;;;;;5089612;28;20043;-71
2023/12/01 07:39:04;;;;;;;42.57;26.60;;;-3.10;99.90;;;;;;5086383;28;20071;-71
2023/12/01 07:41:31;;;;;;;43.30;25.20;;;-3.10;99.90;;;;;;5086237;28;20086;-70
2023/12/01 07:43:58;;;;;;;42.77;26.63;;;-3.20;99.90;;;;;;5090100;28;20054;-71
2023/12/01 07:46:23;;;;;;;45.93;26.37;;;-3.20;99.90;;;;;;5084968;28;20036;-71
2023/12/01 07:48:49;;;;;;;41.37;25.23;;;-3.20;99.90;;;;;;5096856;28;20043;-71
2023/12/01 07:51:18;;;;;;;47.47;27.00;;;-3.20;99.90;;;;;;5084875;28;20050;-73
2023/12/01 07:53:44;;;;;;;45.80;26.53;;;-3.20;99.90;;;;;;5075164;28;20043;-72
2023/12/01 07:56:19;;;;;;;41.97;25.47;;;-3.20;99.90;;;;;;5091384;28;20047;-73
2023/12/01 07:58:45;;;;;;;42.97;24.63;;;-3.20;99.90;;;;;;5090396;28;20105;-73
2023/12/01 08:01:14;;;;;;;49.47;26.20;;;-3.20;99.90;;;;;;5085068;28;20545;-73
2023/12/01 08:03:42;;;;;;;45.37;26.23;;;-3.20;99.90;;;;;;5074140;28;20040;-73
2023/12/01 08:06:09;;;;;;;44.43;25.50;;;-3.10;99.90;;;;;;5065362;28;20087;-73
2023/12/01 08:08:35;;;;;;;41.90;24.77;;;-3.10;99.90;;;;;;5095640;28;20063;-73
2023/12/01 08:11:04;;;;;;;45.27;26.03;;;-3.10;99.90;;;;;;5066347;28;20639;-74
2023/12/01 08:13:30;;;;;;;46.13;27.03;;;-3.10;99.90;;;;;;5083953;28;20098;-73
2023/12/01 08:15:55;;;;;;;42.73;24.50;;;-3.10;99.90;;;;;;5079623;28;20053;-73
2023/12/01 08:18:21;;;;;;;43.77;26.73;;;-3.10;99.90;;;;;;5087103;28;20043;-73
2023/12/01 08:20:47;;;;;;;43.73;26.13;;;-3.00;99.90;;;;;;5067155;28;20044;-73
2023/12/01 08:23:13;;;;;;;44.03;27.27;;;-3.00;99.90;;;;;;5066367;28;20104;-74
2023/12/01 08:25:39;;;;;;;41.50;25.07;;;-3.00;99.90;;;;;;5086538;28;20735;-73
2023/12/01 08:28:05;;;;;;;39.53;25.03;;;-3.00;99.90;;;;;;5067052;28;20047;-73
2023/12/01 08:30:30;;;;;;;47.13;27.20;;;-3.00;99.90;;;;;;5065225;28;20078;-73
2023/12/01 08:32:57;;;;;;;41.17;25.10;;;-2.90;99.90;;;;;;5083432;28;20036;-73
2023/12/01 08:35:24;;;;;;;44.37;26.90;;;-2.90;99.90;;;;;;5081897;28;20052;-73
2023/12/01 08:37:51;;;;;;;46.13;26.23;;;-2.90;99.90;;;;;;5074424;28;20125;-71
2023/12/01 08:40:17;;;;;;;45.03;26.43;;;-2.80;99.90;;;;;;5072552;28;20083;-70
2023/12/01 08:42:43;;;;;;;42.00;26.63;;;-2.80;99.90;;;;;;5084744;28;20785;-70
2023/12/01 08:45:10;;;;;;;41.10;26.20;;;-2.80;99.90;;;;;;5067712;28;20035;-70
2023/12/01 08:47:36;;;;;;;47.10;27.47;;;-2.80;99.90;;;;;;5073171;28;20048;-70
2023/12/01 08:50:01;;;;;;;43.97;26.53;;;-2.80;99.90;;;;;;5082494;28;20092;-70
2023/12/01 08:52:27;;;;;;;43.00;26.07;;;-2.70;99.90;;;;;;5087417;28;20040;-70
2023/12/01 08:54:53;;;;;;;43.60;27.27;;;-2.70;99.90;;;;;;5083541;28;20054;-70
2023/12/01 08:57:19;;;;;;;42.30;26.10;;;-2.70;99.90;;;;;;5066709;28;20052;-70
2023/12/01 08:59:44;;;;;;;39.73;25.53;;;-2.60;99.90;;;;;;5080700;28;20043;-70
2023/12/01 09:02:13;;;;;;;43.10;26.13;;;-2.70;99.90;;;;;;5079873;28;20108;-71
2023/12/01 09:04:39;;;;;;;44.67;26.93;;;-2.60;99.90;;;;;;5083745;28;20042;-73
2023/12/01 09:07:05;;;;;;;40.53;24.80;;;-2.60;99.90;;;;;;5089043;28;20044;-73
2023/12/01 09:09:31;;;;;;;40.07;25.73;;;-2.50;99.90;;;;;;5058831;28;20048;-72
2023/12/01 09:11:56;;;;;;;39.60;24.20;;;-2.40;99.90;;;;;;5056330;28;20410;-73
2023/12/01 09:14:22;;;;;;;39.60;25.73;;;-2.30;99.90;;;;;;5071442;28;20045;-73
2023/12/01 09:16:48;;;;;;;37.20;23.33;;;-2.20;99.90;;;;;;5059555;28;20044;-73
2023/12/01 09:19:13;;;;;;;35.47;24.03;;;-2.20;99.90;;;;;;5076343;28;20113;-73
2023/12/01 09:21:39;;;;;;;39.67;26.77;;;-2.20;99.90;;;;;;5055879;28;20063;-73
2023/12/01 09:24:05;;;;;;;35.83;24.00;;;-2.10;99.90;;;;;;5072487;28;20403;-73
2023/12/01 09:26:31;;;;;;;35.57;24.17;;;-2.10;99.90;;;;;;5073959;28;20036;-73
2023/12/01 09:28:57;;;;;;;34.87;23.30;;;-2.00;99.90;;;;;;5066636;28;20492;-73
2023/12/01 09:31:23;;;;;;;38.53;25.33;;;-2.00;99.90;;;;;;5051696;28;20364;-74
2023/12/01 09:33:49;;;;;;;36.47;24.40;;;-2.10;99.90;;;;;;5058933;28;20051;-73
2023/12/01 09:36:17;;;;;;;36.47;23.83;;;-2.00;99.90;;;;;;5074230;28;20044;-73
2023/12/01 09:38:49;;;;;;;34.37;22.33;;;-2.10;99.90;;;;;;5057668;28;20067;-73
2023/12/01 09:41:19;;;;;;;34.80;23.60;;;-2.00;99.90;;;;;;5062519;28;20048;-73
2023/12/01 09:43:44;;;;;;;32.77;23.10;;;-2.10;99.90;;;;;;5073506;28;20497;-73
2023/12/01 09:46:11;;;;;;;32.80;23.33;;;-2.00;99.90;;;;;;5083825;28;20040;-73
2023/12/01 09:48:40;;;;;;;33.73;23.60;;;-1.90;99.90;;;;;;5066705;28;20503;-73
2023/12/01 09:51:07;;;;;;;36.50;25.05;;;-1.80;99.90;;;;;;5076180;28;20060;-73
2023/12/01 09:53:34;;;;;;;34.53;24.87;;;-1.80;99.90;;;;;;5052790;28;20055;-73
2023/12/01 09:56:05;;;;;;;34.23;23.43;;;-1.80;99.90;;;;;;5080362;28;20063;-73
2023/12/01 09:58:32;;;;;;;35.77;25.90;;;-1.80;99.90;;;;;;5066848;28;20084;-73
2023/12/01 10:00:59;;;;;;;33.43;23.50;;;-1.70;99.90;;;;;;5077579;28;20060;-73
2023/12/01 10:03:27;;;;;;;33.47;24.30;;;-1.80;99.90;;;;;;5069274;28;20036;-73
2023/12/01 10:05:58;;;;;;;36.97;26.23;;;-1.70;99.90;;;;;;5062902;28;20583;-73
2023/12/01 10:08:24;;;;;;;;;;;-1.70;99.90;;;;;;5059087;28;20054;-72
2023/12/01 10:10:50;;;;;;;30.07;21.60;;;-1.70;99.90;;;;;;5069304;28;20371;-73
2023/12/01 10:13:16;;;;;;;32.03;22.50;;;-1.60;99.90;;;;;;5066914;28;20047;-73
2023/12/01 10:15:58;;;;;;;30.40;21.33;;;-1.60;99.90;;;;;;5067053;28;20054;-73
2023/12/01 10:18:23;;;;;;;29.33;22.03;;;-1.60;99.90;;;;;;5080590;28;20043;-74
2023/12/01 10:21:02;;;;;;;30.47;21.23;;;-1.50;99.90;;;;;;5072832;28;20036;-74
2023/12/01 10:23:29;;;;;;;26.27;19.63;;;-1.40;99.90;;;;;;5072992;28;20495;-74
2023/12/01 10:25:55;;;;;;;28.43;20.30;;;-1.40;99.90;;;;;;5070832;28;20041;-73
2023/12/01 10:28:22;;;;;;;26.90;19.90;;;-1.40;99.90;;;;;;5077470;28;20201;-74
2023/12/01 10:30:56;;;;;;;28.17;20.40;;;-1.30;99.90;;;;;;5065804;28;20093;-74
2023/12/01 10:33:23;;;;;;;28.97;21.03;;;-1.30;99.90;;;;;;5082005;28;20048;-75
2023/12/01 10:35:58;;;;;;;26.77;20.70;;;-1.20;99.90;;;;;;5054294;28;20060;-75
2023/12/01 10:38:29;;;;;;;27.17;20.33;;;-1.20;99.90;;;;;;5070121;28;20123;-75
2023/12/01 10:40:56;;;;;;;27.80;20.83;;;-1.10;99.90;;;;;;5055683;28;20063;-75
2023/12/01 10:43:22;;;;;;;28.40;22.07;;;-1.10;99.90;;;;;;5059988;28;20097;-74
2023/12/01 10:45:52;;;;;;;26.67;20.80;;;-1.00;99.90;;;;;;5054233;28;20044;-74
2023/12/01 10:48:20;;;;;;;25.70;20.52;;;-1.00;99.90;;;;;;5065144;28;20130;-74
2023/12/01 10:50:49;;;;;;;24.80;18.97;;;-0.90;99.90;;;;;;5063867;28;20043;-74
2023/12/01 10:53:16;;;;;;;28.15;21.27;;;-0.80;99.90;;;;;;5077518;28;20047;-74
2023/12/01 10:55:48;;;;;;;25.57;19.53;;;-0.80;99.90;;;;;;5077420;28;20131;-74
2023/12/01 10:58:25;;;;;;;25.70;19.87;;;-0.80;99.90;;;;;;5065115;28;20499;-74
2023/12/01 11:00:53;;;;;;;25.10;19.73;;;-0.80;99.90;;;;;;5076861;28;20165;-74
2023/12/01 11:03:22;;;;;;;26.23;20.10;;;-0.70;99.90;;;;;;5057890;28;20441;-74
2023/12/01 11:05:59;;;;;;;25.13;19.88;;;-0.70;99.90;;;;;;5058608;28;20452;-74
2023/12/01 11:08:43;;;;;;;24.70;20.00;;;-0.70;99.90;;;;;;5064266;28;20040;-74
2023/12/01 11:11:14;;;;;;;26.87;20.53;;;-0.60;99.90;;;;;;5057603;28;20055;-73
2023/12/01 11:13:47;;;;;;;;;;;-0.60;99.90;;;;;;5055683;28;20052;-74
2023/12/01 11:16:14;;;;;;;27.93;21.50;;;-0.70;99.90;;;;;;5071722;28;20046;-74
2023/12/01 11:18:43;;;;;;;27.33;21.03;;;-0.70;99.90;;;;;;5076750;28;20040;-74
2023/12/01 11:21:09;;;;;;;27.23;21.08;;;-0.60;99.90;;;;;;5054514;28;20135;-74
2023/12/01 11:23:35;;;;;;;28.47;22.50;;;-0.60;99.90;;;;;;5065477;28;20158;-74
2023/12/01 11:26:08;;;;;;;30.07;23.53;;;-0.50;99.90;;;;;;5063886;28;20044;-75
2023/12/01 11:31:14;;;;;;;29.70;22.60;;;-0.50;99.90;;;;;;5067499;28;20051;-74
2023/12/01 11:33:53;;;;;;;28.90;23.23;;;-0.50;99.90;;;;;;5072678;28;20043;-74
2023/12/01 11:36:28;;;;;;;28.57;22.63;;;-0.60;99.90;;;;;;5053319;28;20048;-74
2023/12/01 11:41:41;;;;;;;29.70;23.40;;;-0.60;99.90;;;;;;5082160;28;20048;-75
2023/12/01 11:44:11;;;;;;;27.70;21.67;;;-0.60;99.90;;;;;;5072378;28;20063;-74
2023/12/01 11:46:40;;;;;;;29.58;22.23;;;-0.60;99.90;;;;;;5067063;28;20040;-75
2023/12/01 11:49:06;;;;;;;28.93;22.57;;;-0.70;99.90;;;;;;5087487;28;20048;-74
2023/12/01 11:51:33;;;;;;;27.03;21.43;;;-0.70;99.90;;;;;;5068592;28;20061;-74
2023/12/01 11:54:01;;;;;;;30.47;23.80;;;-0.70;99.90;;;;;;5083370;28;20067;-75
2023/12/01 11:56:27;;;;;;;30.93;23.73;;;-0.60;99.90;;;;;;5054083;28;20099;-75
2023/12/01 11:58:54;;;;;;;30.60;22.57;;;-0.60;99.90;;;;;;5080262;28;20057;-76
2023/12/01 12:01:20;;;;;;;29.57;23.10;;;-0.60;99.90;;;;;;5083376;28;20097;-75
2023/12/01 12:03:56;;;;;;;30.33;23.30;;;-0.70;99.90;;;;;;5062519;28;20044;-75
2023/12/01 12:06:25;;;;;;;31.33;24.30;;;-0.60;99.90;;;;;;5083814;28;20048;-75
2023/12/01 12:08:54;;;;;;;29.87;23.10;;;-0.60;99.90;;;;;;5077828;28;20502;-75
2023/12/01 12:11:23;;;;;;;27.13;22.33;;;-0.60;99.90;;;;;;5062345;28;20746;-75
2023/12/01 12:13:55;;;;;;;31.83;23.77;;;-0.60;99.90;;;;;;5066298;28;20051;-75
2023/12/01 12:16:22;;;;;;;32.50;24.60;;;-0.60;99.90;;;;;;5063853;28;20051;-75
2023/12/01 12:18:48;;;;;;;31.43;24.50;;;-0.50;99.90;;;;;;5084775;28;20048;-75
2023/12/01 12:21:15;;;;;;;31.50;23.67;;;-0.50;99.90;;;;;;5068563;28;20122;-75
2023/12/01 12:23:45;;;;;;;29.73;23.23;;;-0.50;99.90;;;;;;5082297;28;20041;-75
2023/12/01 12:26:24;;;;;;;;;;;-0.50;99.90;;;;;;5062634;28;20052;-75
2023/12/01 12:28:58;;;;;;;31.93;23.97;;;-0.40;99.90;;;;;;5066990;28;20022;-75
2023/12/01 12:31:38;;;;;;;32.13;24.97;;;-0.50;99.90;;;;;;5078092;28;20036;-75
2023/12/01 12:34:08;;;;;;;30.50;23.95;;;-0.50;99.90;;;;;;5092555;28;20054;-75
2023/12/01 12:36:37;;;;;;;31.43;24.03;;;-0.50;99.90;;;;;;5064466;28;20066;-75
2023/12/01 12:39:05;;;;;;;30.13;24.13;;;-0.50;99.90;;;;;;5078885;28;20083;-75